This is the latest recevied weather packets stored in our database for station/object ON7LDS-13. If no packets are shown the sender has not sent any weather packets the latest 10 day(s).
| Time | Temp. | Humidity | Pressure | Rain* | Wind** | Luminosity | Snow |
|---|---|---|---|---|---|---|---|
| 1777486573 | 17.22° C | 37% | 1028.1 hPa | - | - | - | - |
| 1777482943 | 18.33° C | 35% | 1027.8 hPa | - | - | - | - |
| 1777481743 | 18.33° C | 35% | 1027.9 hPa | - | - | - | - |
| 1777475742 | 19.44° C | 36% | 1028 hPa | - | - | - | - |
| 1777471541 | 19.44° C | 36% | 1028.2 hPa | - | - | - | - |
| 1777470941 | 19.44° C | 37% | 1028.3 hPa | - | - | - | - |
| 1777462540 | 17.78° C | 38% | 1029 hPa | - | - | - | - |
| 1777461960 | 17.22° C | 38% | 1029 hPa | - | - | - | - |
| 1777458399 | 16.11° C | 40% | 1029.1 hPa | - | - | - | - |
| 1777455939 | 15.56° C | 43% | 1029.1 hPa | - | - | - | - |
| 1777454769 | 15° C | 41% | 1029.1 hPa | - | - | - | - |
| 1777453539 | 14.44° C | 43% | 1029.1 hPa | - | - | - | - |
| 1777452939 | 13.89° C | 45% | 1029.1 hPa | - | - | - | - |
| 1777448188 | 11.67° C | 49% | 1029.1 hPa | - | - | - | - |
| 1777443938 | 10.56° C | 56% | 1028.7 hPa | - | - | - | - |
| 1777442137 | 9.44° C | 57% | 1028.6 hPa | - | - | - | - |
| 1777439737 | 8.33° C | 58% | 1028.4 hPa | - | - | - | - |
| 1777437937 | 8.33° C | 57% | 1028.4 hPa | - | - | - | - |
| 1777434366 | 8.89° C | 54% | 1028.2 hPa | - | - | - | - |
| 1777433736 | 9.44° C | 53% | 1028.1 hPa | - | - | - | - |
| 1777433136 | 9.44° C | 52% | 1028.1 hPa | - | - | - | - |
| 1777430736 | 10° C | 51% | 1027.7 hPa | - | - | - | - |
| 1777427165 | 10.56° C | 49% | 1027.7 hPa | - | - | - | - |
| 1777423555 | 11.11° C | 49% | 1027.4 hPa | - | - | - | - |
| 1777422935 | 11.11° C | 49% | 1027.4 hPa | - | - | - | - |
* Rain since midnight (hover to see other rain measurements)
** Current wind speed in m/s (hover to see current wind gust speed)